Weems, Virginia
Current Conditions -  °F | °C
As of 9:55 PM on Sunday 21 Dec 2014 (Local Time) from KW75 Reporting Station
Broken Clouds Broken Clouds  
Wind Chill: 31°   Ceiling: 5000
Heat Index: 31°   Visibility: 10mi
Dew Point: 28°   Wind: 0mph
Humidity: 87%   Direction: NA
Pressure: 30.31"   Gusts: NA
Location:  37.65°N, 76.44°W
Report Text: KW75 220255Z AUTO 00000KT 10SM BKN050 00/M02 A3031 RMK AO1 T10031023
Loading
Personal Weather Stations






























Interactive Weather Map New forecast layout! Learn more

10-Day Weather Forecast

Advertisements
Track Severe Weather on mobile